createdAt,value
2016-10-09T17:53:31.751Z,49.98
2016-10-09T18:05:19.483Z,55.22
2016-10-09T18:06:33.586Z,55.41
2016-10-09T18:07:47.273Z,56.2
2016-10-09T18:09:00.921Z,55.22
2016-10-09T18:10:14.562Z,54.11
2016-10-09T18:11:28.226Z,53.06
2016-10-09T18:12:41.861Z,51.46
2016-10-09T18:13:55.549Z,51.41
2016-10-09T18:15:08.651Z,52.46
2016-10-09T18:16:22.260Z,53.31
2016-10-09T18:17:35.425Z,53.94
2016-10-09T18:21:04.406Z,54.46
2016-10-09T18:22:18.402Z,56.27
2016-10-09T18:23:32.095Z,56.32
2016-10-09T18:24:44.993Z,57.2
2016-10-09T18:25:58.641Z,58.21
2016-10-09T18:27:12.440Z,58.21
2016-10-09T18:28:26.106Z,58.59
2016-10-09T18:29:39.716Z,59.15
2016-10-09T18:30:53.317Z,59.9
2016-10-09T18:32:06.445Z,60.38
2016-10-09T18:33:20.138Z,59.67
2016-10-09T18:34:33.309Z,58.64
2016-10-09T18:35:46.937Z,58.95
2016-10-09T18:37:00.657Z,59.34
2016-10-09T18:38:14.327Z,59.51
2016-10-09T18:39:27.947Z,59.8
2016-10-09T18:40:41.621Z,58.67
2016-10-09T18:41:54.739Z,58.01
2016-10-09T18:43:08.009Z,58.4
2016-10-09T18:44:21.622Z,58.11
2016-10-09T18:45:35.296Z,57.82
2016-10-09T18:46:48.915Z,58.47
2016-10-09T18:48:02.852Z,58.95
2016-10-09T18:49:16.502Z,59.74
2016-10-09T18:50:30.163Z,58.64
2016-10-09T18:51:43.998Z,57.82
2016-10-09T18:52:57.607Z,56.49
2016-10-09T18:54:10.979Z,56.61
2016-10-09T18:55:24.804Z,55.64
2016-10-09T18:56:38.446Z,57.78
2016-10-09T18:57:52.134Z,58.69
2016-10-09T18:59:05.761Z,60.87
2016-10-09T19:00:19.381Z,62.26
2016-10-09T19:01:32.499Z,62.23
2016-10-09T19:02:46.154Z,63.65
2016-10-09T19:03:59.210Z,63.27
2016-10-09T19:05:12.889Z,63.56
2016-10-09T19:06:25.981Z,63.92
2016-10-09T19:07:39.656Z,63.82
2016-10-09T19:08:52.486Z,64.14
2016-10-09T19:10:06.148Z,66.24
2016-10-09T19:11:19.242Z,66.69
2016-10-09T19:12:32.826Z,65.63
2016-10-09T19:13:46.513Z,64.59
2016-10-09T19:14:59.540Z,63.4
2016-10-09T19:16:12.754Z,63.69
2016-10-09T19:17:26.426Z,62.33
2016-10-09T19:18:39.985Z,61.88
2016-10-09T19:19:53.646Z,62.26
2016-10-09T19:21:06.802Z,61.88
2016-10-09T19:22:19.966Z,61.88
2016-10-09T19:23:33.572Z,62.01
2016-10-09T19:24:46.634Z,63.53
2016-10-09T19:26:00.330Z,66.56
2016-10-09T19:27:14.091Z,66.69
2016-10-09T19:28:27.703Z,68.73
2016-10-09T19:29:41.432Z,70.3
2016-10-09T19:30:54.651Z,70.56
2016-10-09T19:32:08.228Z,71.52
2016-10-09T19:33:21.621Z,71.58
2016-10-09T19:34:34.806Z,72
2016-10-09T19:35:47.445Z,72.26
2016-10-09T19:37:01.140Z,73.28
2016-10-09T19:38:14.266Z,73.67
2016-10-09T19:39:27.932Z,74.69
2016-10-09T19:40:39.974Z,74.21
2016-10-09T19:41:53.551Z,73.54
2016-10-09T19:43:07.134Z,73.38
2016-10-09T19:44:20.776Z,74.06
2016-10-09T19:45:33.848Z,74.21
2016-10-09T19:46:46.926Z,74.51
2016-10-09T19:48:00.547Z,75.14
2016-10-09T19:49:14.217Z,75.27
2016-10-09T19:50:26.822Z,75.43
2016-10-09T19:51:39.890Z,76.2
2016-10-09T19:52:52.995Z,76.4
2016-10-09T19:54:06.071Z,76.98
2016-10-09T19:55:19.735Z,76.55
2016-10-09T19:56:32.330Z,76.78
2016-10-09T19:57:45.894Z,76.3
2016-10-09T19:58:58.998Z,75.72
2016-10-09T20:00:12.712Z,75.37
2016-10-09T20:01:26.467Z,74.51
2016-10-09T20:02:40.080Z,73.25
2016-10-09T20:03:53.768Z,74.35
2016-10-09T20:05:06.671Z,73.44
2016-10-09T20:06:19.793Z,72.9
2016-10-09T20:07:33.421Z,73.28
2016-10-09T20:08:46.837Z,73.44
2016-10-09T20:09:59.440Z,74.06
2016-10-09T20:11:11.996Z,75.47
2016-10-09T20:12:25.686Z,75.18
2016-10-09T20:13:39.297Z,75.57
2016-10-09T20:14:52.916Z,75.37
2016-10-09T20:16:06.555Z,76.01
2016-10-09T20:17:20.189Z,76.3
2016-10-09T20:18:33.835Z,77.23
2016-10-09T20:19:47.496Z,77.07
2016-10-09T20:21:01.243Z,77.23
2016-10-09T20:22:14.401Z,77.13
2016-10-09T20:23:27.417Z,77.36
2016-10-09T20:24:41.192Z,77.26
2016-10-09T20:25:54.350Z,77.46
2016-10-09T20:27:07.318Z,77.81
2016-10-09T20:28:20.635Z,78
2016-10-09T20:29:34.598Z,77.61
2016-10-09T20:30:48.616Z,77.81
2016-10-09T20:32:02.258Z,77.75
2016-10-09T20:33:15.396Z,79.16
2016-10-09T20:34:29.031Z,79.11
2016-10-09T20:35:42.689Z,80.08
2016-10-09T20:36:55.815Z,81.24
2016-10-09T20:38:09.550Z,81.48
2016-10-09T20:39:23.162Z,81.39
2016-10-09T20:40:36.260Z,81.58
2016-10-09T20:41:49.909Z,81.96
2016-10-09T20:43:03.714Z,82.26
2016-10-09T20:44:16.826Z,82.6
2016-10-09T20:45:29.889Z,82.45
2016-10-09T20:46:42.938Z,82.06
2016-10-09T20:47:56.083Z,82.64
2016-10-09T20:49:09.168Z,82.83
2016-10-09T20:50:22.824Z,82.06
2016-10-09T20:51:35.910Z,82.35
2016-10-09T20:52:49.569Z,82.26
2016-10-09T20:54:02.121Z,82.74
2016-10-09T20:55:15.844Z,83.18
2016-10-09T20:56:28.421Z,82.89
2016-10-09T20:57:41.821Z,82.89
2016-10-09T20:58:55.505Z,82.74
2016-10-09T21:00:09.211Z,82.7
2016-10-09T21:01:22.811Z,82.79
2016-10-09T21:02:35.928Z,83.28
2016-10-09T21:03:49.570Z,83.37
2016-10-09T21:05:02.615Z,83.56
2016-10-09T21:06:15.931Z,84
2016-10-09T21:07:28.981Z,84
2016-10-09T21:08:42.628Z,84.48
2016-10-09T21:09:56.198Z,84.58
2016-10-09T21:11:09.870Z,85.16
2016-10-09T21:12:23.537Z,84.87
2016-10-09T21:13:36.646Z,85.4
2016-10-09T21:14:50.242Z,85.44
2016-10-09T21:16:03.812Z,85.74
2016-10-09T21:17:17.396Z,85.5
2016-10-09T21:18:30.483Z,85.69
2016-10-09T21:19:43.834Z,85.44
2016-10-09T21:20:57.399Z,85.64
2016-10-09T21:22:11.240Z,85.44
2016-10-09T21:23:24.846Z,85.54
2016-10-09T21:24:38.737Z,85.74
2016-10-09T21:25:52.385Z,85.83
2016-10-09T21:27:05.979Z,85.25
2016-10-09T21:28:19.628Z,85.35
2016-10-09T21:29:33.236Z,85.16
2016-10-09T21:30:46.893Z,85.16
2016-10-09T21:32:00.438Z,86.02
2016-10-09T21:33:14.078Z,86.22
2016-10-09T21:34:27.766Z,86.51
2016-10-09T21:35:41.297Z,86.41
2016-10-09T21:36:54.965Z,86.02
2016-10-09T21:38:08.606Z,86.41
2016-10-09T21:39:22.233Z,86.6
2016-10-09T21:40:35.925Z,86.46
2016-10-09T21:41:49.571Z,86.85
2016-10-09T21:43:03.183Z,86.85
2016-10-09T21:44:16.822Z,86.75
2016-10-09T21:45:30.479Z,86.85
2016-10-09T21:46:44.081Z,86.75
2016-10-09T21:47:57.668Z,87.04
2016-10-09T21:49:11.240Z,87.23
2016-10-09T21:50:24.948Z,87.23
2016-10-09T21:51:38.595Z,87.42
2016-10-09T21:52:52.188Z,87.62
2016-10-09T21:54:05.767Z,87.9
2016-10-09T21:55:19.377Z,88.44
2016-10-09T21:56:33.106Z,89.01
2016-10-09T21:57:46.745Z,89.11
2016-10-09T21:58:59.805Z,89.11
2016-10-09T22:00:13.359Z,89.11
2016-10-09T22:01:26.453Z,89.3
2016-10-09T22:02:40.089Z,89.3
2016-10-09T22:03:53.738Z,89.78
2016-10-09T22:05:07.400Z,89.59
2016-10-09T22:06:20.509Z,89.69
2016-10-09T22:07:34.217Z,89.3
2016-10-09T22:08:47.824Z,89.3
2016-10-09T22:10:01.433Z,89.69
2016-10-09T22:11:15.299Z,89.3
2016-10-09T22:12:28.894Z,89.59
2016-10-09T22:13:42.583Z,90.26
2016-10-09T22:14:56.232Z,90.45
2016-10-09T22:16:09.879Z,89.88
2016-10-09T22:17:23.508Z,90.17
2016-10-09T22:18:37.126Z,89.88
2016-10-09T22:19:50.721Z,90.26
2016-10-09T22:21:04.149Z,90.07
2016-10-09T22:22:17.823Z,89.88
2016-10-09T22:23:31.439Z,90.07
2016-10-09T22:24:45.022Z,89.88
2016-10-09T22:25:58.670Z,90.36
2016-10-09T22:27:12.556Z,90.55
2016-10-09T22:28:26.185Z,90.7
2016-10-09T22:29:39.862Z,90.6
2016-10-09T22:30:53.452Z,90.89
2016-10-09T22:32:07.117Z,90.8
2016-10-09T22:33:20.744Z,90.99
2016-10-09T22:34:34.365Z,90.75
2016-10-09T22:35:47.981Z,91.18
2016-10-09T22:37:01.649Z,91.18
2016-10-09T22:38:15.584Z,90.7
2016-10-09T22:39:29.174Z,91.03
2016-10-09T22:40:42.773Z,90.65
2016-10-09T22:41:56.409Z,90.7
2016-10-09T22:43:10.013Z,90.6
2016-10-09T22:44:23.667Z,90.8
2016-10-09T22:45:37.347Z,91.08
2016-10-09T22:46:50.481Z,90.6
2016-10-09T22:48:04.120Z,90.99
2016-10-09T22:49:17.745Z,90.31
2016-10-09T22:50:31.351Z,90.75
2016-10-09T22:51:44.847Z,90.65
2016-10-09T22:52:58.470Z,90.8
2016-10-09T22:54:12.410Z,91.08
2016-10-09T22:55:26.083Z,90.41
2016-10-09T22:56:39.192Z,90.36
2016-10-09T22:57:52.819Z,90.7
2016-10-09T22:59:06.456Z,90.6
2016-10-09T23:00:20.074Z,90.7
2016-10-09T23:01:33.680Z,90.12
2016-10-09T23:02:47.287Z,90.17
2016-10-09T23:04:00.965Z,89.88
2016-10-09T23:05:14.665Z,90.17
2016-10-09T23:06:28.302Z,89.11
2016-10-09T23:07:41.364Z,89.3
2016-10-09T23:08:55.028Z,89.69
2016-10-09T23:10:08.687Z,89.16
2016-10-09T23:11:22.273Z,89.74
2016-10-09T23:12:35.912Z,89.07
2016-10-09T23:13:49.549Z,89.59
2016-10-09T23:15:03.248Z,89.16
2016-10-09T23:16:16.332Z,89.21
2016-10-09T23:17:29.963Z,89.3
2016-10-09T23:18:43.699Z,88.82
2016-10-09T23:19:57.379Z,88.53
2016-10-09T23:21:11.393Z,88.44
2016-10-09T23:22:25.110Z,88.15
2016-10-09T23:23:38.701Z,88.92
2016-10-09T23:24:52.611Z,88.82
2016-10-09T23:26:06.256Z,89.11
2016-10-09T23:27:19.940Z,89.3
2016-10-09T23:28:33.707Z,88.92
2016-10-09T23:29:47.374Z,88.53
2016-10-09T23:31:00.958Z,88.57
2016-10-09T23:32:14.588Z,88.63
2016-10-09T23:33:27.947Z,88.44
2016-10-09T23:34:41.599Z,88.15
2016-10-09T23:35:55.217Z,88.29
2016-10-09T23:37:08.909Z,88.24
2016-10-09T23:38:22.560Z,88.48
2016-10-09T23:39:36.146Z,89.01
2016-10-09T23:40:49.249Z,88.67
2016-10-09T23:42:03.230Z,89.4
2016-10-09T23:43:16.868Z,89.78
2016-10-09T23:44:30.524Z,90.26
2016-10-09T23:45:44.188Z,90.17
2016-10-09T23:46:57.808Z,90.36
2016-10-09T23:48:11.289Z,90.36
2016-10-09T23:49:24.968Z,91.13
2016-10-09T23:50:38.608Z,90.75
2016-10-09T23:51:52.235Z,90.65
2016-10-09T23:53:06.012Z,90.75
2016-10-09T23:54:19.613Z,90.84
2016-10-09T23:55:33.237Z,90.55
2016-10-09T23:56:46.940Z,90.84
2016-10-09T23:58:00.581Z,90.75
2016-10-09T23:59:12.625Z,90.75
